createdAt,value
2023-04-18T00:03:01.631Z,15.67
2023-04-18T00:06:05.812Z,20.35
2023-04-18T00:09:07.217Z,16.70
2023-04-18T00:12:08.741Z,15.73
2023-04-18T00:15:11.539Z,15.73
2023-04-18T00:18:17.209Z,14.65
2023-04-18T00:21:18.732Z,16.73
2023-04-18T00:24:20.165Z,17.93
2023-04-18T00:27:21.876Z,14.83
2023-04-18T00:30:23.306Z,17.38
2023-04-18T00:33:24.961Z,15.80
2023-04-18T00:36:27.782Z,15.63
2023-04-18T00:39:29.241Z,16.58
2023-04-18T00:42:30.934Z,16.43
2023-04-18T00:45:32.475Z,16.17
2023-04-18T00:48:34.028Z,18.95
2023-04-18T00:51:35.854Z,17.23
2023-04-18T00:54:38.356Z,18.42
2023-04-18T00:57:40.460Z,20.65
2023-04-18T01:00:42.891Z,19.58
2023-04-18T01:03:47.238Z,19.40
2023-04-18T01:06:50.046Z,19.10
2023-04-18T01:09:53.190Z,19.63
2023-04-18T01:13:16.137Z,19.38
2023-04-18T01:16:17.747Z,18.75
2023-04-18T01:19:19.347Z,22.13
2023-04-18T01:22:20.829Z,26.65
2023-04-18T01:25:22.342Z,18.70
2023-04-18T01:28:23.836Z,23.47
2023-04-18T01:31:25.306Z,21.00
2023-04-18T01:34:26.763Z,19.47
2023-04-18T01:37:28.254Z,19.43
2023-04-18T01:40:32.651Z,21.80
2023-04-18T01:43:34.672Z,22.15
2023-04-18T01:46:38.808Z,20.70
2023-04-18T01:49:42.798Z,24.60
2023-04-18T01:52:44.247Z,22.65
2023-04-18T01:55:45.704Z,22.40
2023-04-18T01:58:47.110Z,19.93
2023-04-18T02:01:48.548Z,21.50
2023-04-18T02:04:50.028Z,21.73
2023-04-18T02:07:51.438Z,21.47
2023-04-18T02:10:52.870Z,20.43
2023-04-18T02:13:55.546Z,22.88
2023-04-18T02:16:57.389Z,23.65
2023-04-18T02:19:58.882Z,22.88
2023-04-18T02:23:00.751Z,24.13
2023-04-18T02:26:04.403Z,25.77
2023-04-18T02:29:05.814Z,30.07
2023-04-18T02:32:07.461Z,24.53
2023-04-18T02:35:11.318Z,26.58
2023-04-18T02:38:13.789Z,26.30
2023-04-18T02:41:19.270Z,28.02
2023-04-18T02:44:21.705Z,33.83
2023-04-18T02:47:23.576Z,28.63
2023-04-18T02:50:25.263Z,38.22
2023-04-18T02:53:28.822Z,36.33
2023-04-18T02:56:30.612Z,32.42
2023-04-18T03:03:13.116Z,33.25
2023-04-18T03:06:24.463Z,33.08
2023-04-18T03:09:27.672Z,34.75
2023-04-18T03:12:33.920Z,34.78
2023-04-18T03:15:37.500Z,38.13
2023-04-18T03:18:39.772Z,38.40
2023-04-18T03:21:41.471Z,37.83
2023-04-18T03:24:46.706Z,36.58
2023-04-18T03:27:49.415Z,35.40
2023-04-18T03:30:52.584Z,41.78
2023-04-18T03:33:54.066Z,39.57
2023-04-18T03:36:56.348Z,41.13
2023-04-18T03:43:02.553Z,39.83
2023-04-18T03:46:04.275Z,41.63
2023-04-18T03:52:07.811Z,38.95
2023-04-18T03:55:09.433Z,45.87
2023-04-18T03:58:10.871Z,45.20
2023-04-18T04:01:13.754Z,42.03
2023-04-18T04:04:15.389Z,41.70
2023-04-18T04:07:17.779Z,41.97
2023-04-18T04:10:19.322Z,40.67
2023-04-18T04:13:22.369Z,43.65
2023-04-18T04:16:24.712Z,42.50
2023-04-18T04:19:28.914Z,43.38
2023-04-18T04:25:46.234Z,47.70
2023-04-18T04:29:03.390Z,41.95
2023-04-18T04:32:06.875Z,45.05
2023-04-18T04:35:12.586Z,44.92
2023-04-18T04:38:15.309Z,48.45
2023-04-18T04:41:22.722Z,45.58
2023-04-18T04:44:26.102Z,43.95
2023-04-18T04:47:28.954Z,40.55
2023-04-18T04:50:30.416Z,47.65
2023-04-18T04:53:31.904Z,42.93
2023-04-18T04:56:36.472Z,51.70
2023-04-18T04:59:38.347Z,49.90
2023-04-18T05:05:42.410Z,46.53
2023-04-18T05:08:43.923Z,50.05
2023-04-18T05:11:45.384Z,46.40
2023-04-18T05:14:46.904Z,47.03
2023-04-18T05:17:48.436Z,45.33
2023-04-18T05:20:50.013Z,45.67
2023-04-18T05:23:51.562Z,50.07
2023-04-18T05:26:53.189Z,49.50
2023-04-18T05:29:54.814Z,50.60
2023-04-18T05:32:56.469Z,52.53
2023-04-18T05:35:58.750Z,51.72
2023-04-18T05:42:02.243Z,51.53
2023-04-18T05:45:03.927Z,48.88
2023-04-18T05:48:05.554Z,45.70
2023-04-18T05:51:07.026Z,46.10
2023-04-18T05:54:08.466Z,45.33
2023-04-18T05:57:09.898Z,46.57
2023-04-18T06:00:12.139Z,46.33
2023-04-18T06:03:16.785Z,44.83
2023-04-18T06:06:18.421Z,45.97
2023-04-18T06:09:19.903Z,51.23
2023-04-18T06:12:21.372Z,47.77
2023-04-18T06:15:22.778Z,60.87
2023-04-18T06:18:24.256Z,62.83
2023-04-18T06:21:26.825Z,55.77
2023-04-18T06:24:30.181Z,53.65
2023-04-18T06:27:32.716Z,46.42
2023-04-18T06:30:34.295Z,49.57
2023-04-18T06:33:37.620Z,53.10
2023-04-18T06:36:39.451Z,49.22
2023-04-18T06:39:40.867Z,49.33
2023-04-18T06:42:43.160Z,54.33
2023-04-18T06:48:46.070Z,48.22
2023-04-18T06:51:47.512Z,57.20
2023-04-18T06:54:48.927Z,49.50
2023-04-18T06:57:50.310Z,52.97
2023-04-18T07:00:52.033Z,50.40
2023-04-18T07:03:53.841Z,49.33
2023-04-18T07:06:55.445Z,48.40
2023-04-18T07:09:57.001Z,55.23
2023-04-18T07:12:58.475Z,54.67
2023-04-18T07:16:00.575Z,49.43
2023-04-18T07:19:02.006Z,44.92
2023-04-18T07:22:03.478Z,53.83
2023-04-18T07:25:05.285Z,60.27
2023-04-18T07:28:06.718Z,53.17
2023-04-18T07:31:11.292Z,52.27
2023-04-18T07:34:14.030Z,51.95
2023-04-18T07:37:17.483Z,51.28
2023-04-18T07:40:19.079Z,51.72
2023-04-18T07:43:20.955Z,49.70
2023-04-18T07:46:22.558Z,50.67
2023-04-18T07:49:24.147Z,49.30
2023-04-18T07:52:25.756Z,51.75
2023-04-18T07:55:27.240Z,52.22
2023-04-18T07:58:29.200Z,52.47
2023-04-18T08:01:30.929Z,50.25
2023-04-18T08:04:33.227Z,52.60
2023-04-18T08:10:36.514Z,47.97
2023-04-18T08:13:38.022Z,49.40
2023-04-18T08:16:39.966Z,52.27
2023-04-18T08:19:41.450Z,52.03
2023-04-18T08:22:57.714Z,48.40
2023-04-18T08:26:04.841Z,55.55
2023-04-18T08:29:06.326Z,53.67
2023-04-18T08:32:08.087Z,50.17
2023-04-18T08:35:09.546Z,45.80
2023-04-18T08:38:10.961Z,49.25
2023-04-18T08:41:12.615Z,45.80
2023-04-18T08:44:14.323Z,49.53
2023-04-18T08:47:16.349Z,45.78
2023-04-18T08:50:18.393Z,42.75
2023-04-18T08:53:19.820Z,47.70
2023-04-18T08:56:25.926Z,45.43
2023-04-18T08:59:27.428Z,44.47
2023-04-18T09:02:42.601Z,47.43
2023-04-18T09:06:13.549Z,49.42
2023-04-18T09:09:15.225Z,42.95
2023-04-18T09:12:22.351Z,50.53
2023-04-18T09:15:27.131Z,50.20
2023-04-18T09:18:28.615Z,43.90
2023-04-18T09:21:30.372Z,43.43
2023-04-18T09:24:32.556Z,48.75
2023-04-18T09:27:34.905Z,46.17
2023-04-18T09:33:54.047Z,48.80
2023-04-18T09:37:21.941Z,45.85
2023-04-18T09:40:24.033Z,48.08
2023-04-18T09:43:25.515Z,47.53
2023-04-18T09:46:27.549Z,52.87
2023-04-18T09:49:29.301Z,44.53
2023-04-18T09:52:38.528Z,49.88
2023-04-18T09:55:41.430Z,44.30
2023-04-18T09:58:47.055Z,46.92
2023-04-18T10:01:49.647Z,48.17
2023-04-18T10:04:53.994Z,42.60
2023-04-18T10:07:56.088Z,45.50
2023-04-18T10:10:58.656Z,40.58
2023-04-18T10:14:07.878Z,47.83
2023-04-18T10:17:10.225Z,44.80
2023-04-18T10:23:30.808Z,43.03
2023-04-18T10:26:46.999Z,41.10
2023-04-18T10:29:52.941Z,42.45
2023-04-18T10:32:55.467Z,42.72
2023-04-18T10:35:58.832Z,37.15
2023-04-18T10:39:03.950Z,41.10
2023-04-18T10:42:05.455Z,42.50
2023-04-18T10:45:18.374Z,40.07
2023-04-18T10:48:30.315Z,39.15
2023-04-18T10:51:32.071Z,40.65
2023-04-18T10:54:38.741Z,46.35
2023-04-18T10:57:45.399Z,39.67
2023-04-18T11:00:49.598Z,41.33
2023-04-18T11:03:52.184Z,39.42
2023-04-18T11:06:58.309Z,39.38
2023-04-18T11:10:00.337Z,38.28
2023-04-18T11:13:06.434Z,40.63
2023-04-18T11:16:08.161Z,43.60
2023-04-18T11:19:23.555Z,40.35
2023-04-18T11:22:25.183Z,39.85
2023-04-18T11:25:28.461Z,41.95
2023-04-18T11:28:29.974Z,42.83
2023-04-18T11:31:31.468Z,45.33
2023-04-18T11:34:33.083Z,40.73
2023-04-18T11:37:37.516Z,41.40
2023-04-18T11:40:39.161Z,42.90
2023-04-18T11:43:45.693Z,44.65
2023-04-18T11:46:47.623Z,40.20
2023-04-18T11:50:01.809Z,42.20
2023-04-18T11:53:03.228Z,40.20
2023-04-18T11:56:05.467Z,38.63
2023-04-18T12:05:30.425Z,39.95
2023-04-18T12:08:32.763Z,41.10
2023-04-18T12:11:34.562Z,35.45
2023-04-18T12:14:36.131Z,39.47
2023-04-18T12:17:38.204Z,40.80
2023-04-18T12:20:49.859Z,36.50
2023-04-18T12:23:51.722Z,36.55
2023-04-18T12:26:53.205Z,33.53
2023-04-18T12:29:54.677Z,35.28
2023-04-18T12:32:58.384Z,36.53
2023-04-18T12:35:59.957Z,33.47
2023-04-18T12:39:01.741Z,37.08
2023-04-18T12:42:03.689Z,34.45
2023-04-18T12:45:07.640Z,33.20
2023-04-18T12:48:09.149Z,34.00
2023-04-18T12:51:10.551Z,40.85
2023-04-18T12:54:12.235Z,41.53
2023-04-18T12:57:13.962Z,40.08
2023-04-18T13:00:15.496Z,41.00
2023-04-18T13:03:17.331Z,38.22
2023-04-18T13:06:19.071Z,33.72
2023-04-18T13:09:20.563Z,38.55
2023-04-18T13:12:22.046Z,40.47
2023-04-18T13:15:23.884Z,39.73
2023-04-18T13:18:25.532Z,37.28
2023-04-18T13:21:27.501Z,40.10
2023-04-18T13:24:28.926Z,59.60
